< < Back
Terminal Aerodrome Forecast


Current Version              Previous Versions:   1  2  3  4  5  6  7  8  9  

Terminal Aerodrome Forecast

796
FTUS44 KMOB 270500
TAFMOB
TAF
KMOB 270538Z 2706/2806 27006KT P6SM SKC
     FM270700 31007KT P6SM SKC
     FM271500 35012G18KT P6SM SKC
     FM272300 36005KT P6SM SKC=



Latest METAR

009
SAUS80 KWBC 270500
MTRMOB
METAR KMOB 270456Z 25006KT 10SM CLR 12/07 A3022 RMK AO2 SLP231
T01220067


USA.gov is the U.S. government's official web portal to all federal, state and local government web resources and services.